createdAt,value
2022-12-14T00:01:36.964Z,-5.78
2022-12-14T00:04:03.528Z,-5.80
2022-12-14T00:06:32.257Z,-5.79
2022-12-14T00:09:03.824Z,-5.78
2022-12-14T00:11:33.439Z,-5.78
2022-12-14T00:14:01.706Z,-5.88
2022-12-14T00:16:31.487Z,-5.97
2022-12-14T00:18:59.708Z,-5.99
2022-12-14T00:21:26.804Z,-6.04
2022-12-14T00:23:54.168Z,-6.10
2022-12-14T00:26:26.324Z,-6.19
2022-12-14T00:28:54.482Z,-6.31
2022-12-14T00:31:22.341Z,-6.28
2022-12-14T00:33:49.737Z,-6.30
2022-12-14T00:36:17.427Z,-6.33
2022-12-14T00:38:44.551Z,-6.29
2022-12-14T00:41:11.884Z,-6.25
2022-12-14T00:43:38.481Z,-6.19
2022-12-14T00:46:05.407Z,-6.18
2022-12-14T00:48:33.318Z,-6.19
2022-12-14T00:51:00.437Z,-6.21
2022-12-14T00:53:27.277Z,-6.20
2022-12-14T00:55:53.638Z,-6.24
2022-12-14T00:58:21.966Z,-6.28
2022-12-14T01:01:01.741Z,-6.30
2022-12-14T01:03:28.849Z,-6.33
2022-12-14T01:05:56.040Z,-6.35
2022-12-14T01:08:23.593Z,-6.34
2022-12-14T01:10:51.040Z,-6.41
2022-12-14T01:13:17.509Z,-6.43
2022-12-14T01:15:44.053Z,-6.41
2022-12-14T01:18:10.391Z,-6.40
2022-12-14T01:20:36.830Z,-6.39
2022-12-14T01:23:03.199Z,-6.38
2022-12-14T01:25:29.630Z,-6.48
2022-12-14T01:27:56.092Z,-6.52
2022-12-14T01:30:22.413Z,-6.54
2022-12-14T01:32:48.817Z,-6.51
2022-12-14T01:35:15.440Z,-6.49
2022-12-14T01:37:41.942Z,-6.50
2022-12-14T01:40:08.735Z,-6.51
2022-12-14T01:42:36.143Z,-6.50
2022-12-14T01:45:03.889Z,-6.51
2022-12-14T01:47:46.241Z,-6.58
2022-12-14T01:50:34.126Z,-6.50
2022-12-14T01:53:16.638Z,-6.48
2022-12-14T01:55:49.736Z,-6.55
2022-12-14T01:58:19.296Z,-6.57
2022-12-14T02:00:46.656Z,-6.53
2022-12-14T02:03:22.182Z,-6.47
2022-12-14T02:05:57.390Z,-6.42
2022-12-14T02:08:26.358Z,-6.44
2022-12-14T02:10:55.152Z,-6.48
2022-12-14T02:13:30.944Z,-6.53
2022-12-14T02:15:57.532Z,-6.47
2022-12-14T02:18:30.371Z,-6.45
2022-12-14T02:21:18.640Z,-6.50
2022-12-14T02:24:07.387Z,-6.57
2022-12-14T02:26:46.319Z,-6.65
2022-12-14T02:29:24.025Z,-6.80
2022-12-14T02:32:28.297Z,-6.73
2022-12-14T02:35:03.293Z,-6.73
2022-12-14T02:37:49.091Z,-6.76
2022-12-14T02:40:32.799Z,-6.79
2022-12-14T02:43:27.821Z,-6.86
2022-12-14T02:46:10.775Z,-6.93
2022-12-14T02:48:44.733Z,-7.05
2022-12-14T02:51:26.170Z,-7.07
2022-12-14T02:54:09.174Z,-7.18
2022-12-14T02:56:42.400Z,-7.18
2022-12-14T02:59:09.763Z,-7.25
2022-12-14T03:01:38.114Z,-7.17
2022-12-14T03:04:06.631Z,-7.13
2022-12-14T03:06:33.242Z,-7.10
2022-12-14T03:09:07.970Z,-7.09
2022-12-14T03:11:43.770Z,-7.09
2022-12-14T03:14:18.516Z,-6.93
2022-12-14T03:16:49.067Z,-6.92
2022-12-14T03:19:22.207Z,-6.84
2022-12-14T03:21:56.654Z,-6.85
2022-12-14T03:24:28.463Z,-6.81
2022-12-14T03:27:07.148Z,-6.73
2022-12-14T03:29:42.559Z,-6.64
2022-12-14T03:32:14.154Z,-6.60
2022-12-14T03:34:50.882Z,-6.64
2022-12-14T03:37:27.144Z,-6.72
2022-12-14T03:39:54.569Z,-6.78
2022-12-14T03:42:28.729Z,-6.89
2022-12-14T03:45:18.283Z,-6.87
2022-12-14T03:47:50.726Z,-6.83
2022-12-14T03:50:40.370Z,-6.71
2022-12-14T03:53:35.733Z,-6.71
2022-12-14T03:56:31.043Z,-6.80
2022-12-14T03:59:06.351Z,-6.80
2022-12-14T04:01:58.055Z,-6.79
2022-12-14T04:04:40.798Z,-6.70
2022-12-14T04:07:30.129Z,-6.63
2022-12-14T04:10:25.875Z,-6.72
2022-12-14T04:13:20.038Z,-6.64
2022-12-14T04:20:12.823Z,-6.91
2022-12-14T04:22:45.524Z,-7.07
2022-12-14T04:25:55.171Z,-7.12
2022-12-14T04:29:00.665Z,-7.11
2022-12-14T04:31:30.400Z,-7.19
2022-12-14T04:34:03.551Z,-7.18
2022-12-14T04:36:51.246Z,-7.18
2022-12-14T04:39:35.229Z,-7.20
2022-12-14T04:42:04.134Z,-7.22
2022-12-14T04:44:35.459Z,-7.23
2022-12-14T04:47:07.491Z,-7.25
2022-12-14T04:49:49.237Z,-7.19
2022-12-14T04:52:27.698Z,-7.22
2022-12-14T04:55:12.872Z,-7.17
2022-12-14T04:57:46.069Z,-7.33
2022-12-14T05:00:13.925Z,-7.35
2022-12-14T05:03:09.491Z,-7.36
2022-12-14T05:05:52.639Z,-7.36
2022-12-14T05:08:36.633Z,-7.39
2022-12-14T05:11:50.090Z,-7.41
2022-12-14T05:14:10.756Z,-7.52
2022-12-14T05:16:38.141Z,-7.48
2022-12-14T05:19:09.104Z,-7.43
2022-12-14T05:21:48.733Z,-7.37
2022-12-14T05:24:16.438Z,-7.29
2022-12-14T05:26:43.265Z,-7.24
2022-12-14T05:29:09.665Z,-7.20
2022-12-14T05:31:36.111Z,-7.17
2022-12-14T05:34:03.472Z,-7.27
2022-12-14T05:36:30.410Z,-7.34
2022-12-14T05:38:56.938Z,-7.39
2022-12-14T05:41:23.391Z,-7.43
2022-12-14T05:43:50.757Z,-7.45
2022-12-14T05:46:17.754Z,-7.48
2022-12-14T05:48:48.973Z,-7.51
2022-12-14T05:51:16.329Z,-7.40
2022-12-14T05:53:42.910Z,-7.39
2022-12-14T05:56:10.529Z,-7.31
2022-12-14T05:58:37.696Z,-7.30
2022-12-14T06:01:13.938Z,-7.30
2022-12-14T06:03:43.576Z,-7.45
2022-12-14T06:06:11.891Z,-7.53
2022-12-14T06:08:43.032Z,-7.51
2022-12-14T06:11:15.238Z,-7.43
2022-12-14T06:13:42.670Z,-7.39
2022-12-14T06:16:21.993Z,-7.35
2022-12-14T06:19:00.261Z,-7.31
2022-12-14T06:21:29.765Z,-7.33
2022-12-14T06:23:57.226Z,-7.27
2022-12-14T06:26:25.473Z,-7.18
2022-12-14T06:28:52.406Z,-7.25
2022-12-14T06:31:21.759Z,-7.24
2022-12-14T06:33:48.809Z,-7.39
2022-12-14T06:36:26.818Z,-7.33
2022-12-14T06:39:00.712Z,-7.27
2022-12-14T06:41:27.175Z,-7.23
2022-12-14T06:43:53.802Z,-7.18
2022-12-14T06:46:21.929Z,-7.25
2022-12-14T06:48:53.471Z,-7.25
2022-12-14T06:51:21.507Z,-7.32
2022-12-14T06:53:56.013Z,-7.35
2022-12-14T06:56:25.203Z,-7.34
2022-12-14T06:58:54.021Z,-7.35
2022-12-14T07:01:23.751Z,-7.30
2022-12-14T07:03:52.841Z,-7.27
2022-12-14T07:06:19.727Z,-7.21
2022-12-14T07:08:47.725Z,-7.19
2022-12-14T07:11:20.180Z,-7.18
2022-12-14T07:13:48.901Z,-7.10
2022-12-14T07:16:26.161Z,-7.10
2022-12-14T07:18:54.033Z,-7.12
2022-12-14T07:21:22.307Z,-6.95
2022-12-14T07:23:51.888Z,-6.94
2022-12-14T07:26:25.076Z,-6.85
2022-12-14T07:28:54.117Z,-6.82
2022-12-14T07:31:26.496Z,-6.76
2022-12-14T07:33:55.354Z,-6.76
2022-12-14T07:36:24.525Z,-6.76
2022-12-14T07:38:51.863Z,-6.78
2022-12-14T07:41:22.987Z,-6.71
2022-12-14T07:43:53.232Z,-6.61
2022-12-14T07:46:25.759Z,-6.51
2022-12-14T07:48:55.556Z,-6.43
2022-12-14T07:51:26.756Z,-6.37
2022-12-14T07:53:53.896Z,-6.26
2022-12-14T07:56:27.073Z,-6.19
2022-12-14T07:58:56.075Z,-6.17
2022-12-14T08:01:31.651Z,-6.11
2022-12-14T08:04:07.787Z,-6.06
2022-12-14T08:06:35.274Z,-5.99
2022-12-14T08:09:02.052Z,-5.88
2022-12-14T08:11:28.615Z,-5.82
2022-12-14T08:14:00.958Z,-5.66
2022-12-14T08:16:28.567Z,-5.57
2022-12-14T08:18:56.657Z,-5.43
2022-12-14T08:21:25.361Z,-5.42
2022-12-14T08:23:53.902Z,-5.28
2022-12-14T08:26:22.034Z,-5.11
2022-12-14T08:28:49.389Z,-4.98
2022-12-14T08:31:20.759Z,-4.92
2022-12-14T08:33:48.490Z,-4.88
2022-12-14T08:36:19.538Z,-4.72
2022-12-14T08:38:52.272Z,-4.62
2022-12-14T08:41:19.112Z,-4.58
2022-12-14T08:43:55.228Z,-4.59
2022-12-14T08:46:23.653Z,-4.49
2022-12-14T08:48:52.597Z,-4.34
2022-12-14T08:51:19.836Z,-4.29
2022-12-14T08:53:49.888Z,-4.29
2022-12-14T08:56:18.968Z,-4.23
2022-12-14T08:58:46.086Z,-4.04
2022-12-14T09:01:19.427Z,-4.00
2022-12-14T09:03:47.015Z,-3.91
2022-12-14T09:06:20.403Z,-3.80
2022-12-14T09:08:50.316Z,-3.65
2022-12-14T09:11:19.389Z,-3.63
2022-12-14T09:13:47.008Z,-3.55
2022-12-14T09:16:18.042Z,-3.59
2022-12-14T09:18:46.324Z,-3.40
2022-12-14T09:21:17.480Z,-3.26
2022-12-14T09:23:45.502Z,-3.18
2022-12-14T09:26:16.300Z,-3.15
2022-12-14T09:28:47.026Z,-3.04
2022-12-14T09:31:18.329Z,-2.95
2022-12-14T09:33:45.815Z,-2.85
2022-12-14T09:36:16.091Z,-2.90
2022-12-14T09:38:50.980Z,-2.88
2022-12-14T09:41:22.128Z,-2.73
2022-12-14T09:43:59.884Z,-2.79
2022-12-14T09:46:59.141Z,-2.60
2022-12-14T09:49:42.038Z,-2.34
2022-12-14T09:52:17.208Z,-2.36
2022-12-14T09:54:49.632Z,-2.48
2022-12-14T09:57:37.306Z,-2.44
2022-12-14T10:00:10.843Z,-2.29
2022-12-14T10:03:07.768Z,-2.04
2022-12-14T10:05:59.279Z,-2.07
2022-12-14T10:08:36.027Z,-2.09
2022-12-14T10:11:10.884Z,-2.05
2022-12-14T10:14:06.920Z,-1.87
2022-12-14T10:16:52.313Z,-1.74
2022-12-14T10:19:40.862Z,-1.80
2022-12-14T10:22:17.868Z,-1.80
2022-12-14T10:24:48.673Z,-1.71
2022-12-14T10:27:25.766Z,-1.63
2022-12-14T10:29:59.569Z,-1.37
2022-12-14T10:32:35.142Z,-1.39
2022-12-14T10:35:48.663Z,-1.17
2022-12-14T10:38:28.402Z,-1.20
2022-12-14T10:41:05.442Z,-1.32
2022-12-14T10:43:49.653Z,-1.29
2022-12-14T10:46:52.431Z,-1.33
2022-12-14T10:49:28.262Z,-1.20
2022-12-14T10:52:00.708Z,-1.13
2022-12-14T10:54:33.057Z,-1.03
2022-12-14T10:57:00.427Z,-0.88
2022-12-14T10:59:42.253Z,-0.85
2022-12-14T11:02:16.563Z,-0.66
2022-12-14T11:04:46.625Z,-0.54
2022-12-14T11:07:16.250Z,-0.55
2022-12-14T11:09:42.827Z,-0.50
2022-12-14T11:12:26.948Z,-0.45
2022-12-14T11:14:58.421Z,-0.50
2022-12-14T11:17:36.462Z,-0.56
2022-12-14T11:20:22.050Z,-0.53
2022-12-14T11:22:54.269Z,-0.58
2022-12-14T11:25:35.849Z,-0.52
2022-12-14T11:28:31.259Z,-0.54
2022-12-14T11:31:11.110Z,-0.69
2022-12-14T11:33:45.626Z,-0.90
2022-12-14T11:36:27.845Z,-0.99
2022-12-14T11:39:00.714Z,-0.87
2022-12-14T11:41:35.827Z,-0.87
2022-12-14T11:44:23.999Z,-1.03
2022-12-14T11:47:01.278Z,-1.02
2022-12-14T11:49:43.293Z,-1.00
2022-12-14T11:52:16.909Z,-1.07
2022-12-14T11:54:50.456Z,-1.08
2022-12-14T11:57:25.414Z,-1.01
2022-12-14T11:59:57.087Z,-1.03
2022-12-14T12:02:26.780Z,-0.98
2022-12-14T12:04:57.670Z,-1.08
2022-12-14T12:07:34.352Z,-0.95
2022-12-14T12:10:30.100Z,-0.87
2022-12-14T12:13:00.088Z,-0.92
2022-12-14T12:15:36.396Z,-0.96
2022-12-14T12:18:13.081Z,-0.83
2022-12-14T12:20:49.527Z,-0.95
2022-12-14T12:23:22.556Z,-0.90
2022-12-14T12:25:52.574Z,-0.93
2022-12-14T12:28:25.827Z,-0.83
2022-12-14T12:31:07.362Z,-0.82
2022-12-14T12:33:54.734Z,-0.71
2022-12-14T12:36:24.255Z,-0.81
2022-12-14T12:39:05.390Z,-0.85
2022-12-14T12:42:12.325Z,-0.75
2022-12-14T12:45:05.665Z,-0.71
2022-12-14T12:47:47.091Z,-0.60
2022-12-14T12:50:23.566Z,-0.75
2022-12-14T12:53:08.225Z,-0.79
2022-12-14T12:55:42.393Z,-0.81
2022-12-14T12:58:20.470Z,-0.80
2022-12-14T13:00:51.143Z,-0.76
2022-12-14T13:03:24.642Z,-0.73
2022-12-14T13:05:54.852Z,-0.88
2022-12-14T13:08:35.651Z,-0.85
2022-12-14T13:11:26.282Z,-0.86
2022-12-14T13:14:01.001Z,-0.85
2022-12-14T13:16:33.559Z,-0.99
2022-12-14T13:19:48.222Z,-1.08
2022-12-14T13:22:05.148Z,-0.96
2022-12-14T13:24:33.245Z,-1.15
2022-12-14T13:27:20.457Z,-1.22
2022-12-14T13:30:32.277Z,-1.20
2022-12-14T13:33:26.871Z,-1.31
2022-12-14T13:36:21.864Z,-1.43
2022-12-14T13:39:19.238Z,-1.47
2022-12-14T13:42:02.092Z,-1.52
2022-12-14T13:44:53.862Z,-1.40
2022-12-14T13:47:25.601Z,-1.46
2022-12-14T13:50:26.673Z,-1.40
2022-12-14T13:52:46.012Z,-1.39
2022-12-14T13:55:49.068Z,-1.37
2022-12-14T13:58:18.291Z,-1.41
2022-12-14T14:00:45.165Z,-1.48
2022-12-14T14:03:33.546Z,-1.43
2022-12-14T14:06:23.087Z,-1.47
2022-12-14T14:08:52.537Z,-1.68
2022-12-14T14:11:38.486Z,-1.74
2022-12-14T14:14:22.688Z,-1.71
2022-12-14T14:16:56.164Z,-1.72
2022-12-14T14:19:25.868Z,-1.72
2022-12-14T14:22:22.990Z,-1.68
2022-12-14T14:25:09.557Z,-1.83
2022-12-14T14:27:50.383Z,-1.94
2022-12-14T14:31:15.721Z,-2.03
2022-12-14T14:33:48.636Z,-2.17
2022-12-14T14:36:25.355Z,-2.20
2022-12-14T14:38:55.304Z,-2.26
2022-12-14T14:41:54.143Z,-2.35
2022-12-14T14:44:37.896Z,-2.40
2022-12-14T14:47:15.139Z,-2.37
2022-12-14T14:49:43.308Z,-2.31
2022-12-14T14:52:39.482Z,-2.34
2022-12-14T14:58:27.052Z,-2.42
2022-12-14T15:01:39.925Z,-2.44
2022-12-14T15:04:19.979Z,-2.46
2022-12-14T15:07:02.110Z,-2.50
2022-12-14T15:09:35.403Z,-2.52
2022-12-14T15:12:18.761Z,-2.50
2022-12-14T15:14:53.161Z,-2.52
2022-12-14T15:17:24.372Z,-2.52
2022-12-14T15:19:56.124Z,-2.55
2022-12-14T15:22:30.371Z,-2.59
2022-12-14T15:25:00.309Z,-2.55
2022-12-14T15:27:36.693Z,-2.55
2022-12-14T15:30:26.391Z,-2.58
2022-12-14T15:33:07.657Z,-2.66
2022-12-14T15:35:38.253Z,-2.68
2022-12-14T15:38:09.146Z,-2.67
2022-12-14T15:40:43.799Z,-2.63
2022-12-14T15:43:18.146Z,-2.57
2022-12-14T15:45:51.134Z,-2.64
2022-12-14T15:48:33.781Z,-2.70
2022-12-14T15:51:20.635Z,-2.78
2022-12-14T15:53:53.695Z,-2.81
2022-12-14T15:56:23.298Z,-2.86
2022-12-14T15:58:52.374Z,-2.88
2022-12-14T16:01:30.612Z,-2.96
2022-12-14T16:04:04.569Z,-2.90
2022-12-14T16:06:37.714Z,-2.86
2022-12-14T16:09:10.259Z,-2.92
2022-12-14T16:11:45.270Z,-2.99
2022-12-14T16:14:43.672Z,-3.05
2022-12-14T16:17:36.901Z,-3.06
2022-12-14T16:20:20.392Z,-3.08
2022-12-14T16:23:27.903Z,-3.09
2022-12-14T16:26:15.640Z,-3.12
2022-12-14T16:28:49.024Z,-3.08
2022-12-14T16:31:30.048Z,-3.13
2022-12-14T16:34:14.457Z,-3.16
2022-12-14T16:36:42.123Z,-3.12
2022-12-14T16:39:21.927Z,-3.12
2022-12-14T16:41:57.927Z,-3.13
2022-12-14T16:44:31.311Z,-3.10
2022-12-14T16:47:11.677Z,-3.15
2022-12-14T16:49:54.394Z,-3.09
2022-12-14T16:52:30.713Z,-3.08
2022-12-14T16:55:19.858Z,-3.12
2022-12-14T16:57:47.329Z,-3.13
2022-12-14T17:00:37.538Z,-3.10
2022-12-14T17:03:26.998Z,-3.05
2022-12-14T17:06:06.404Z,-3.06
2022-12-14T17:08:36.323Z,-2.90
2022-12-14T17:11:04.069Z,-2.90
2022-12-14T17:13:31.987Z,-2.94
2022-12-14T17:16:04.225Z,-2.91
2022-12-14T17:18:35.229Z,-2.86
2022-12-14T17:21:05.237Z,-2.76
2022-12-14T17:23:35.659Z,-2.76
2022-12-14T17:26:03.991Z,-2.74
2022-12-14T17:28:34.921Z,-2.71
2022-12-14T17:31:04.258Z,-2.68
2022-12-14T17:33:32.968Z,-2.81
2022-12-14T17:36:01.439Z,-2.81
2022-12-14T17:38:31.607Z,-2.83
2022-12-14T17:41:01.590Z,-2.80
2022-12-14T17:43:30.668Z,-2.78
2022-12-14T17:46:03.031Z,-2.87
2022-12-14T17:48:30.708Z,-2.89
2022-12-14T17:50:59.658Z,-2.89
2022-12-14T17:53:39.996Z,-2.98
2022-12-14T17:56:16.128Z,-2.95
2022-12-14T17:58:46.067Z,-2.98
2022-12-14T18:01:22.934Z,-3.06
2022-12-14T18:03:52.282Z,-3.09
2022-12-14T18:06:19.474Z,-3.14
2022-12-14T18:08:48.247Z,-3.19
2022-12-14T18:11:19.980Z,-3.16
2022-12-14T18:13:47.814Z,-3.03
2022-12-14T18:16:19.494Z,-3.02
2022-12-14T18:18:46.936Z,-3.06
2022-12-14T18:21:20.895Z,-3.04
2022-12-14T18:23:49.839Z,-3.04
2022-12-14T18:26:24.145Z,-3.09
2022-12-14T18:28:53.351Z,-3.13
2022-12-14T18:31:40.862Z,-3.17
2022-12-14T18:34:09.612Z,-3.18
2022-12-14T18:36:36.580Z,-3.12
2022-12-14T18:39:04.635Z,-3.16
2022-12-14T18:41:33.230Z,-3.20
2022-12-14T18:44:03.812Z,-3.18
2022-12-14T18:46:31.569Z,-3.21
2022-12-14T18:48:59.424Z,-3.18
2022-12-14T18:51:27.284Z,-3.22
2022-12-14T18:53:57.102Z,-3.27
2022-12-14T18:56:35.588Z,-3.25
2022-12-14T18:59:03.461Z,-3.16
2022-12-14T19:01:31.474Z,-3.14
2022-12-14T19:04:01.199Z,-3.12
2022-12-14T19:06:45.287Z,-3.19
2022-12-14T19:09:14.692Z,-3.24
2022-12-14T19:11:42.396Z,-3.22
2022-12-14T19:14:11.174Z,-3.34
2022-12-14T19:16:38.995Z,-3.30
2022-12-14T19:19:06.500Z,-3.26
2022-12-14T19:21:34.070Z,-3.26
2022-12-14T19:24:02.270Z,-3.27
2022-12-14T19:26:30.660Z,-3.30
2022-12-14T19:28:57.981Z,-3.46
2022-12-14T19:31:25.637Z,-3.50
2022-12-14T19:33:53.825Z,-3.45
2022-12-14T19:36:20.945Z,-3.46
2022-12-14T19:38:49.860Z,-3.47
2022-12-14T19:41:20.944Z,-3.51
2022-12-14T19:43:48.241Z,-3.54
2022-12-14T19:46:18.276Z,-3.60
2022-12-14T19:48:46.087Z,-3.65
2022-12-14T19:51:14.690Z,-3.70
2022-12-14T19:53:43.893Z,-3.72
2022-12-14T19:56:14.991Z,-3.79
2022-12-14T19:58:42.491Z,-3.87
2022-12-14T20:01:12.369Z,-3.95
2022-12-14T20:03:39.759Z,-4.01
2022-12-14T20:06:07.934Z,-4.04
2022-12-14T20:08:37.316Z,-4.03
2022-12-14T20:11:10.718Z,-4.06
2022-12-14T20:13:38.224Z,-4.03
2022-12-14T20:16:06.514Z,-4.01
2022-12-14T20:18:33.739Z,-3.96
2022-12-14T20:21:05.353Z,-3.99
2022-12-14T20:23:34.821Z,-4.06
2022-12-14T20:26:03.691Z,-4.18
2022-12-14T20:28:30.853Z,-4.22
2022-12-14T20:30:58.232Z,-4.24
2022-12-14T20:33:30.151Z,-4.23
2022-12-14T20:35:58.809Z,-4.22
2022-12-14T20:38:26.003Z,-4.24
2022-12-14T20:40:53.640Z,-4.22
2022-12-14T20:43:21.192Z,-4.21
2022-12-14T20:45:47.964Z,-4.21
2022-12-14T20:48:14.431Z,-4.23
2022-12-14T20:50:43.018Z,-4.24
2022-12-14T20:53:10.559Z,-4.31
2022-12-14T20:55:37.480Z,-4.38
2022-12-14T20:58:04.197Z,-4.39
2022-12-14T21:00:31.261Z,-4.32
2022-12-14T21:02:58.065Z,-4.26
2022-12-14T21:05:24.867Z,-4.21
2022-12-14T21:07:51.393Z,-4.16
2022-12-14T21:10:18.138Z,-4.15
2022-12-14T21:12:47.432Z,-4.12
2022-12-14T21:15:14.351Z,-4.09
2022-12-14T21:17:41.051Z,-4.10
2022-12-14T21:20:10.988Z,-4.08
2022-12-14T21:22:38.241Z,-4.06
2022-12-14T21:25:07.328Z,-4.06
2022-12-14T21:27:38.894Z,-4.02
2022-12-14T21:30:10.447Z,-4.00
2022-12-14T21:32:37.716Z,-3.95
2022-12-14T21:35:05.146Z,-3.84
2022-12-14T21:37:31.697Z,-3.77
2022-12-14T21:39:59.437Z,-3.75
2022-12-14T21:42:26.132Z,-3.83
2022-12-14T21:44:55.570Z,-3.86
2022-12-14T21:47:25.793Z,-3.96
2022-12-14T21:49:52.703Z,-4.04
2022-12-14T21:52:22.576Z,-4.08
2022-12-14T21:54:50.859Z,-4.12
2022-12-14T21:57:49.893Z,-4.13
2022-12-14T22:00:18.660Z,-4.20
2022-12-14T22:02:45.197Z,-4.28
2022-12-14T22:05:12.398Z,-4.33
2022-12-14T22:07:38.997Z,-4.36
2022-12-14T22:10:05.896Z,-4.41
2022-12-14T22:12:32.398Z,-4.43
2022-12-14T22:14:59.139Z,-4.40
2022-12-14T22:17:26.088Z,-4.38
2022-12-14T22:19:54.450Z,-4.41
2022-12-14T22:22:20.998Z,-4.42
2022-12-14T22:24:50.451Z,-4.48
2022-12-14T22:27:17.151Z,-4.56
2022-12-14T22:29:43.842Z,-4.60
2022-12-14T22:32:17.667Z,-4.59
2022-12-14T22:34:45.170Z,-4.63
2022-12-14T22:37:16.043Z,-4.69
2022-12-14T22:39:42.987Z,-4.72
2022-12-14T22:42:09.996Z,-4.74
2022-12-14T22:44:36.942Z,-4.73
2022-12-14T22:47:03.603Z,-4.79
2022-12-14T22:49:29.985Z,-4.76
2022-12-14T22:54:41.125Z,-4.67
2022-12-14T22:57:14.432Z,-4.67
2022-12-14T22:59:47.044Z,-4.61
2022-12-14T23:02:13.940Z,-4.66
2022-12-14T23:04:40.706Z,-4.72
2022-12-14T23:07:07.305Z,-4.76
2022-12-14T23:09:52.372Z,-4.72
2022-12-14T23:12:37.882Z,-4.72
2022-12-14T23:15:23.220Z,-4.86
2022-12-14T23:18:12.829Z,-4.95
2022-12-14T23:20:57.819Z,-5.01
2022-12-14T23:23:42.640Z,-5.01
2022-12-14T23:26:27.552Z,-5.01
2022-12-14T23:29:12.522Z,-4.95
2022-12-14T23:31:57.280Z,-4.98
2022-12-14T23:34:42.014Z,-5.04
2022-12-14T23:37:27.009Z,-5.07
2022-12-14T23:40:11.928Z,-5.07
2022-12-14T23:42:56.692Z,-5.06
2022-12-14T23:45:41.584Z,-5.16
2022-12-14T23:48:26.952Z,-5.19
2022-12-14T23:51:12.019Z,-5.24
2022-12-14T23:53:56.805Z,-5.24
2022-12-14T23:56:41.769Z,-5.23
2022-12-14T23:59:31.984Z,-5.24
